Terminal Aerodrome Forecast
Issued by NWS Upton, NY

Home | Current Version | Previous Version | Text Only | Print | Product List | Glossary On
Versions: 1 2 3 4 5 6 7 8 9 10 11 12 13 14 15 16 17 18 19 20 21 22 23 24
000
FTUS41 KOKX 221100
TAFJFK
TAF
KJFK 221130Z 2212/2318 24006KT P6SM SCT250
     FM221600 19009KT P6SM FEW050 FEW250
     FM221800 18012KT P6SM FEW250
     FM222100 19016KT P6SM FEW250
     FM230100 21007KT P6SM FEW050
     FM231600 19012KT P6SM FEW030=

USA.gov is the U.S. government's official web portal to all federal, state and local government web resources and services.